PWSweather.com
Personal Weather Stations
Station Observations
SD92115WX
El Cerrito Stoneybluff, San Diego, CA 92115

El Cerrito StoneybluffSan Diego, CA 92115

Lat: 32.754096, Lon: -117.066705

Elevation: 420

Station Type: Davis Vantage Vue

http://stoneybluff.com

High Low Average
Temperature 82.0°F27.8°C 63.0°F17.2°C 72.0°F22.2°C
Dew Point 66.0°F18.9°C 61.0°F16.1°C 63.7°F17.6°C
Winds 8.9 mph 14.3 kmh Calm Calm 2.0 mph WSW3.2 kmh WSW
Wind Gusts 14.8 mph23.8 kmh -- 5.0 mph8.0 kmh
Humidity 94% 54% 77%
Pressure 29.87 in1011.5 mb 29.72 in1006.4 mb -
Precipitation 0.00 in0.0 mm - -
Hour Temp Dew Point Humidity Winds Wind Gusts Pressure Precip Precip Rate Daily Precip Total
12:02 AM 65.7°F18.7°C 63.3°F17.4°C 92% Calm Calm -- 29.87 in1011.5 mb 0.00 in0.0 mm 0.00 in0.0 mm 0.00 in0.0 mm
12:07 AM 65.7°F18.7°C 63.3°F17.4°C 92% Calm Calm -- 29.86 in1011.2 mb 0.00 in0.0 mm 0.00 in0.0 mm 0.00 in0.0 mm
12:12 AM 65.5°F18.6°C 63.1°F17.3°C 92% Calm Calm -- 29.86 in1011.2 mb 0.00 in0.0 mm 0.00 in0.0 mm 0.00 in0.0 mm
12:17 AM 65.1°F18.4°C 62.8°F17.1°C 92% Calm Calm -- 29.86 in1011.2 mb 0.00 in0.0 mm 0.00 in0.0 mm 0.00 in0.0 mm
12:22 AM 64.9°F18.3°C 62.6°F17.0°C 92% Calm Calm -- 29.86 in1011.2 mb 0.00 in0.0 mm 0.00 in0.0 mm 0.00 in0.0 mm
12:27 AM 64.8°F18.2°C 62.4°F16.9°C 92% Calm Calm -- 29.86 in1011.2 mb 0.00 in0.0 mm 0.00 in0.0 mm 0.00 in0.0 mm
12:32 AM 64.8°F18.2°C 62.4°F16.9°C 92% Calm Calm -- 29.86 in1011.2 mb 0.00 in0.0 mm 0.00 in0.0 mm 0.00 in0.0 mm
12:37 AM 64.6°F18.1°C 62.2°F16.8°C 92% Calm Calm -- 29.86 in1011.2 mb 0.00 in0.0 mm 0.00 in0.0 mm 0.00 in0.0 mm
12:42 AM 64.6°F18.1°C 62.2°F16.8°C 92% Calm Calm -- 29.86 in1011.2 mb 0.00 in0.0 mm 0.00 in0.0 mm 0.00 in0.0 mm
12:47 AM 64.2°F17.9°C 61.9°F16.6°C 92% Calm Calm -- 29.86 in1011.2 mb 0.00 in0.0 mm 0.00 in0.0 mm 0.00 in0.0 mm
12:52 AM 64.0°F17.8°C 61.7°F16.5°C 92% Calm Calm -- 29.86 in1011.2 mb 0.00 in0.0 mm 0.00 in0.0 mm 0.00 in0.0 mm
12:57 AM 64.2°F17.9°C 62.2°F16.8°C 93% Calm Calm -- 29.86 in1011.2 mb 0.00 in0.0 mm 0.00 in0.0 mm 0.00 in0.0 mm
01:02 AM 64.2°F17.9°C 62.2°F16.8°C 93% Calm Calm -- 29.86 in1011.2 mb 0.00 in0.0 mm 0.00 in0.0 mm 0.00 in0.0 mm
01:07 AM 64.2°F17.9°C 62.2°F16.8°C 93% Calm Calm -- 29.86 in1011.2 mb 0.00 in0.0 mm 0.00 in0.0 mm 0.00 in0.0 mm
01:12 AM 64.2°F17.9°C 62.2°F16.8°C 93% Calm Calm -- 29.85 in1010.8 mb 0.00 in0.0 mm 0.00 in0.0 mm 0.00 in0.0 mm
01:17 AM 63.9°F17.7°C 61.5°F16.4°C 92% Calm Calm -- 29.85 in1010.8 mb 0.00 in0.0 mm 0.00 in0.0 mm 0.00 in0.0 mm
01:22 AM 64.0°F17.8°C 62.1°F16.7°C 93% Calm Calm -- 29.86 in1011.2 mb 0.00 in0.0 mm 0.00 in0.0 mm 0.00 in0.0 mm
01:27 AM 64.4°F18.0°C 62.4°F16.9°C 93% Calm Calm -- 29.85 in1010.8 mb 0.00 in0.0 mm 0.00 in0.0 mm 0.00 in0.0 mm
01:32 AM 64.8°F18.2°C 62.6°F17.0°C 93% Calm Calm -- 29.85 in1010.8 mb 0.00 in0.0 mm 0.00 in0.0 mm 0.00 in0.0 mm
01:37 AM 64.6°F18.1°C 62.4°F16.9°C 93% Calm Calm -- 29.85 in1010.8 mb 0.00 in0.0 mm 0.00 in0.0 mm 0.00 in0.0 mm
01:42 AM 64.4°F18.0°C 62.4°F16.9°C 93% Calm Calm -- 29.85 in1010.8 mb 0.00 in0.0 mm 0.00 in0.0 mm 0.00 in0.0 mm
01:47 AM 64.2°F17.9°C 62.2°F16.8°C 93% Calm Calm -- 29.85 in1010.8 mb 0.00 in0.0 mm 0.00 in0.0 mm 0.00 in0.0 mm
01:52 AM 64.2°F17.9°C 62.2°F16.8°C 93% Calm Calm -- 29.85 in1010.8 mb 0.00 in0.0 mm 0.00 in0.0 mm 0.00 in0.0 mm
01:57 AM 64.0°F17.8°C 62.1°F16.7°C 93% Calm Calm -- 29.85 in1010.8 mb 0.00 in0.0 mm 0.00 in0.0 mm 0.00 in0.0 mm
02:02 AM 63.9°F17.7°C 61.9°F16.6°C 93% Calm Calm -- 29.85 in1010.8 mb 0.00 in0.0 mm 0.00 in0.0 mm 0.00 in0.0 mm
02:07 AM 63.7°F17.6°C 61.7°F16.5°C 93% Calm Calm -- 29.85 in1010.8 mb 0.00 in0.0 mm 0.00 in0.0 mm 0.00 in0.0 mm
02:12 AM 63.7°F17.6°C 61.7°F16.5°C 93% Calm Calm -- 29.85 in1010.8 mb 0.00 in0.0 mm 0.00 in0.0 mm 0.00 in0.0 mm
02:17 AM 63.5°F17.5°C 61.5°F16.4°C 93% Calm Calm -- 29.85 in1010.8 mb 0.00 in0.0 mm 0.00 in0.0 mm 0.00 in0.0 mm
02:22 AM 63.5°F17.5°C 61.5°F16.4°C 93% Calm Calm -- 29.85 in1010.8 mb 0.00 in0.0 mm 0.00 in0.0 mm 0.00 in0.0 mm
02:27 AM 63.3°F17.4°C 61.3°F16.3°C 93% Calm Calm -- 29.85 in1010.8 mb 0.00 in0.0 mm 0.00 in0.0 mm 0.00 in0.0 mm
02:32 AM 63.3°F17.4°C 61.3°F16.3°C 93% Calm Calm -- 29.85 in1010.8 mb 0.00 in0.0 mm 0.00 in0.0 mm 0.00 in0.0 mm
02:37 AM 63.3°F17.4°C 61.3°F16.3°C 93% Calm Calm -- 29.85 in1010.8 mb 0.00 in0.0 mm 0.00 in0.0 mm 0.00 in0.0 mm
02:42 AM 63.3°F17.4°C 61.3°F16.3°C 93% Calm Calm -- 29.85 in1010.8 mb 0.00 in0.0 mm 0.00 in0.0 mm 0.00 in0.0 mm
02:47 AM 63.5°F17.5°C 61.7°F16.5°C 94% Calm Calm -- 29.84 in1010.5 mb 0.00 in0.0 mm 0.00 in0.0 mm 0.00 in0.0 mm
02:52 AM 63.3°F17.4°C 61.3°F16.3°C 93% Calm Calm -- 29.85 in1010.8 mb 0.00 in0.0 mm 0.00 in0.0 mm 0.00 in0.0 mm
02:57 AM 63.0°F17.2°C 61.0°F16.1°C 93% Calm Calm -- 29.85 in1010.8 mb 0.00 in0.0 mm 0.00 in0.0 mm 0.00 in0.0 mm
03:02 AM 63.1°F17.3°C 61.3°F16.3°C 94% Calm Calm -- 29.85 in1010.8 mb 0.00 in0.0 mm 0.00 in0.0 mm 0.00 in0.0 mm
03:07 AM 63.1°F17.3°C 61.3°F16.3°C 94% Calm Calm -- 29.84 in1010.5 mb 0.00 in0.0 mm 0.00 in0.0 mm 0.00 in0.0 mm
03:12 AM 63.5°F17.5°C 61.7°F16.5°C 94% Calm Calm -- 29.84 in1010.5 mb 0.00 in0.0 mm 0.00 in0.0 mm 0.00 in0.0 mm
03:17 AM 63.7°F17.6°C 61.9°F16.6°C 94% Calm Calm -- 29.84 in1010.5 mb 0.00 in0.0 mm 0.00 in0.0 mm 0.00 in0.0 mm
03:22 AM 63.7°F17.6°C 61.9°F16.6°C 94% Calm Calm -- 29.84 in1010.5 mb 0.00 in0.0 mm 0.00 in0.0 mm 0.00 in0.0 mm
03:27 AM 63.7°F17.6°C 61.7°F16.5°C 93% Calm Calm -- 29.84 in1010.5 mb 0.00 in0.0 mm 0.00 in0.0 mm 0.00 in0.0 mm
03:32 AM 63.7°F17.6°C 61.7°F16.5°C 93% Calm Calm -- 29.84 in1010.5 mb 0.00 in0.0 mm 0.00 in0.0 mm 0.00 in0.0 mm
03:37 AM 63.9°F17.7°C 61.9°F16.6°C 93% Calm Calm -- 29.83 in1010.2 mb 0.00 in0.0 mm 0.00 in0.0 mm 0.00 in0.0 mm
03:42 AM 64.0°F17.8°C 62.2°F16.8°C 94% Calm Calm -- 29.83 in1010.2 mb 0.00 in0.0 mm 0.00 in0.0 mm 0.00 in0.0 mm
03:47 AM 64.0°F17.8°C 62.1°F16.7°C 93% Calm Calm -- 29.83 in1010.2 mb 0.00 in0.0 mm 0.00 in0.0 mm 0.00 in0.0 mm
03:52 AM 64.0°F17.8°C 62.1°F16.7°C 93% Calm Calm -- 29.83 in1010.2 mb 0.00 in0.0 mm 0.00 in0.0 mm 0.00 in0.0 mm
03:57 AM 64.0°F17.8°C 62.1°F16.7°C 93% Calm Calm -- 29.84 in1010.5 mb 0.00 in0.0 mm 0.00 in0.0 mm 0.00 in0.0 mm
04:02 AM 64.0°F17.8°C 62.1°F16.7°C 93% Calm Calm -- 29.83 in1010.2 mb 0.00 in0.0 mm 0.00 in0.0 mm 0.00 in0.0 mm
04:07 AM 64.0°F17.8°C 62.1°F16.7°C 93% Calm Calm -- 29.83 in1010.2 mb 0.00 in0.0 mm 0.00 in0.0 mm 0.00 in0.0 mm
04:12 AM 64.2°F17.9°C 62.4°F16.9°C 94% Calm Calm -- 29.83 in1010.2 mb 0.00 in0.0 mm 0.00 in0.0 mm 0.00 in0.0 mm
04:17 AM 64.6°F18.1°C 62.8°F17.1°C 94% Calm Calm -- 29.83 in1010.2 mb 0.00 in0.0 mm 0.00 in0.0 mm 0.00 in0.0 mm
04:22 AM 64.6°F18.1°C 62.4°F16.9°C 93% Calm Calm -- 29.83 in1010.2 mb 0.00 in0.0 mm 0.00 in0.0 mm 0.00 in0.0 mm
04:27 AM 64.8°F18.2°C 62.6°F17.0°C 93% Calm Calm -- 29.84 in1010.5 mb 0.00 in0.0 mm 0.00 in0.0 mm 0.00 in0.0 mm
04:32 AM 64.8°F18.2°C 62.6°F17.0°C 93% Calm Calm -- 29.84 in1010.5 mb 0.00 in0.0 mm 0.00 in0.0 mm 0.00 in0.0 mm
04:37 AM 64.8°F18.2°C 62.6°F17.0°C 93% Calm Calm -- 29.84 in1010.5 mb 0.00 in0.0 mm 0.00 in0.0 mm 0.00 in0.0 mm
04:42 AM 64.8°F18.2°C 62.6°F17.0°C 93% Calm Calm -- 29.83 in1010.2 mb 0.00 in0.0 mm 0.00 in0.0 mm 0.00 in0.0 mm
04:47 AM 64.8°F18.2°C 62.6°F17.0°C 93% Calm Calm -- 29.83 in1010.2 mb 0.00 in0.0 mm 0.00 in0.0 mm 0.00 in0.0 mm
04:52 AM 64.8°F18.2°C 62.6°F17.0°C 93% Calm Calm -- 29.84 in1010.5 mb 0.00 in0.0 mm 0.00 in0.0 mm 0.00 in0.0 mm
04:57 AM 64.9°F18.3°C 62.8°F17.1°C 93% 0.7 mph WNW1.1 kmh WNW 2.0 mph3.2 kmh 29.84 in1010.5 mb 0.00 in0.0 mm 0.00 in0.0 mm 0.00 in0.0 mm
05:02 AM 64.9°F18.3°C 62.8°F17.1°C 93% Calm Calm -- 29.84 in1010.5 mb 0.00 in0.0 mm 0.00 in0.0 mm 0.00 in0.0 mm
05:07 AM 64.9°F18.3°C 62.8°F17.1°C 93% Calm Calm -- 29.84 in1010.5 mb 0.00 in0.0 mm 0.00 in0.0 mm 0.00 in0.0 mm
05:12 AM 64.8°F18.2°C 62.6°F17.0°C 93% Calm Calm -- 29.84 in1010.5 mb 0.00 in0.0 mm 0.00 in0.0 mm 0.00 in0.0 mm
05:17 AM 64.6°F18.1°C 62.2°F16.8°C 92% Calm Calm -- 29.84 in1010.5 mb 0.00 in0.0 mm 0.00 in0.0 mm 0.00 in0.0 mm
05:22 AM 64.6°F18.1°C 62.4°F16.9°C 93% Calm Calm -- 29.85 in1010.8 mb 0.00 in0.0 mm 0.00 in0.0 mm 0.00 in0.0 mm
05:27 AM 64.4°F18.0°C 62.4°F16.9°C 93% Calm Calm -- 29.84 in1010.5 mb 0.00 in0.0 mm 0.00 in0.0 mm 0.00 in0.0 mm
05:32 AM 64.4°F18.0°C 62.4°F16.9°C 93% Calm Calm -- 29.85 in1010.8 mb 0.00 in0.0 mm 0.00 in0.0 mm 0.00 in0.0 mm
05:37 AM 64.4°F18.0°C 62.4°F16.9°C 93% Calm Calm -- 29.84 in1010.5 mb 0.00 in0.0 mm 0.00 in0.0 mm 0.00 in0.0 mm
05:42 AM 64.4°F18.0°C 62.4°F16.9°C 93% Calm Calm -- 29.85 in1010.8 mb 0.00 in0.0 mm 0.00 in0.0 mm 0.00 in0.0 mm
05:47 AM 64.6°F18.1°C 62.4°F16.9°C 93% Calm Calm -- 29.85 in1010.8 mb 0.00 in0.0 mm 0.00 in0.0 mm 0.00 in0.0 mm
05:52 AM 64.8°F18.2°C 62.6°F17.0°C 93% Calm Calm 1.1 mph1.8 kmh 29.85 in1010.8 mb 0.00 in0.0 mm 0.00 in0.0 mm 0.00 in0.0 mm
05:57 AM 64.9°F18.3°C 62.8°F17.1°C 93% 0.2 mph E0.3 kmh E 1.1 mph1.8 kmh 29.85 in1010.8 mb 0.00 in0.0 mm 0.00 in0.0 mm 0.00 in0.0 mm
06:02 AM 65.1°F18.4°C 62.8°F17.1°C 92% Calm Calm 1.1 mph1.8 kmh 29.85 in1010.8 mb 0.00 in0.0 mm 0.00 in0.0 mm 0.00 in0.0 mm
06:07 AM 65.1°F18.4°C 62.8°F17.1°C 92% Calm Calm -- 29.85 in1010.8 mb 0.00 in0.0 mm 0.00 in0.0 mm 0.00 in0.0 mm
06:12 AM 65.1°F18.4°C 62.8°F17.1°C 92% Calm Calm -- 29.85 in1010.8 mb 0.00 in0.0 mm 0.00 in0.0 mm 0.00 in0.0 mm
06:17 AM 64.9°F18.3°C 62.6°F17.0°C 92% Calm Calm -- 29.85 in1010.8 mb 0.00 in0.0 mm 0.00 in0.0 mm 0.00 in0.0 mm
06:22 AM 65.1°F18.4°C 62.8°F17.1°C 92% Calm Calm -- 29.85 in1010.8 mb 0.00 in0.0 mm 0.00 in0.0 mm 0.00 in0.0 mm
06:27 AM 65.5°F18.6°C 63.1°F17.3°C 92% Calm Calm -- 29.85 in1010.8 mb 0.00 in0.0 mm 0.00 in0.0 mm 0.00 in0.0 mm
06:32 AM 66.0°F18.9°C 63.7°F17.6°C 92% Calm Calm -- 29.85 in1010.8 mb 0.00 in0.0 mm 0.00 in0.0 mm 0.00 in0.0 mm
06:37 AM 66.6°F19.2°C 63.9°F17.7°C 91% Calm Calm -- 29.85 in1010.8 mb 0.00 in0.0 mm 0.00 in0.0 mm 0.00 in0.0 mm
06:42 AM 66.9°F19.4°C 64.2°F17.9°C 91% Calm Calm 1.1 mph1.8 kmh 29.85 in1010.8 mb 0.00 in0.0 mm 0.00 in0.0 mm 0.00 in0.0 mm
06:47 AM 66.9°F19.4°C 64.2°F17.9°C 91% Calm Calm -- 29.85 in1010.8 mb 0.00 in0.0 mm 0.00 in0.0 mm 0.00 in0.0 mm
06:52 AM 67.3°F19.6°C 64.2°F17.9°C 90% Calm Calm -- 29.85 in1010.8 mb 0.00 in0.0 mm 0.00 in0.0 mm 0.00 in0.0 mm
06:57 AM 67.5°F19.7°C 64.4°F18.0°C 90% Calm Calm -- 29.85 in1010.8 mb 0.00 in0.0 mm 0.00 in0.0 mm 0.00 in0.0 mm
07:02 AM 67.6°F19.8°C 64.2°F17.9°C 89% 0.9 mph NW1.4 kmh NW 3.1 mph5.0 kmh 29.85 in1010.8 mb 0.00 in0.0 mm 0.00 in0.0 mm 0.00 in0.0 mm
07:07 AM 67.5°F19.7°C 64.0°F17.8°C 89% 0.7 mph NW1.1 kmh NW 4.3 mph6.9 kmh 29.85 in1010.8 mb 0.00 in0.0 mm 0.00 in0.0 mm 0.00 in0.0 mm
07:12 AM 67.5°F19.7°C 64.0°F17.8°C 89% Calm Calm 2.0 mph3.2 kmh 29.85 in1010.8 mb 0.00 in0.0 mm 0.00 in0.0 mm 0.00 in0.0 mm
07:17 AM 67.6°F19.8°C 64.0°F17.8°C 88% Calm Calm -- 29.85 in1010.8 mb 0.00 in0.0 mm 0.00 in0.0 mm 0.00 in0.0 mm
07:22 AM 67.8°F19.9°C 64.2°F17.9°C 88% Calm Calm -- 29.85 in1010.8 mb 0.00 in0.0 mm 0.00 in0.0 mm 0.00 in0.0 mm
07:27 AM 68.2°F20.1°C 64.2°F17.9°C 87% Calm Calm 1.1 mph1.8 kmh 29.85 in1010.8 mb 0.00 in0.0 mm 0.00 in0.0 mm 0.00 in0.0 mm
07:32 AM 68.5°F20.3°C 64.6°F18.1°C 87% 0.2 mph NW0.3 kmh NW 2.0 mph3.2 kmh 29.85 in1010.8 mb 0.00 in0.0 mm 0.00 in0.0 mm 0.00 in0.0 mm
07:37 AM 68.7°F20.4°C 64.4°F18.0°C 86% 0.2 mph NNW0.3 kmh NNW 4.3 mph6.9 kmh 29.85 in1010.8 mb 0.00 in0.0 mm 0.00 in0.0 mm 0.00 in0.0 mm
07:42 AM 69.1°F20.6°C 64.4°F18.0°C 85% 0.2 mph N0.3 kmh N 2.0 mph3.2 kmh 29.85 in1010.8 mb 0.00 in0.0 mm 0.00 in0.0 mm 0.00 in0.0 mm
07:47 AM 69.4°F20.8°C 64.4°F18.0°C 84% 0.4 mph NW0.6 kmh NW 3.1 mph5.0 kmh 29.85 in1010.8 mb 0.00 in0.0 mm 0.00 in0.0 mm 0.00 in0.0 mm
07:52 AM 69.8°F21.0°C 64.8°F18.2°C 84% Calm Calm -- 29.85 in1010.8 mb 0.00 in0.0 mm 0.00 in0.0 mm 0.00 in0.0 mm
07:57 AM 70.2°F21.2°C 64.4°F18.0°C 82% Calm Calm 1.1 mph1.8 kmh 29.85 in1010.8 mb 0.00 in0.0 mm 0.00 in0.0 mm 0.00 in0.0 mm
08:02 AM 70.5°F21.4°C 65.1°F18.4°C 83% Calm Calm -- 29.84 in1010.5 mb 0.00 in0.0 mm 0.00 in0.0 mm 0.00 in0.0 mm
08:07 AM 71.2°F21.8°C 64.8°F18.2°C 80% 0.4 mph WSW0.6 kmh WSW 2.0 mph3.2 kmh 29.84 in1010.5 mb 0.00 in0.0 mm 0.00 in0.0 mm 0.00 in0.0 mm
08:12 AM 71.2°F21.8°C 64.8°F18.2°C 80% 0.4 mph SW0.6 kmh SW 2.0 mph3.2 kmh 29.84 in1010.5 mb 0.00 in0.0 mm 0.00 in0.0 mm 0.00 in0.0 mm
08:17 AM 71.8°F22.1°C 64.9°F18.3°C 79% 0.7 mph SSE1.1 kmh SSE 3.1 mph5.0 kmh 29.84 in1010.5 mb 0.00 in0.0 mm 0.00 in0.0 mm 0.00 in0.0 mm
08:22 AM 72.1°F22.3°C 64.9°F18.3°C 78% Calm Calm 2.0 mph3.2 kmh 29.84 in1010.5 mb 0.00 in0.0 mm 0.00 in0.0 mm 0.00 in0.0 mm
08:27 AM 72.1°F22.3°C 64.2°F17.9°C 76% 1.8 mph WNW2.9 kmh WNW 6.3 mph10.1 kmh 29.84 in1010.5 mb 0.00 in0.0 mm 0.00 in0.0 mm 0.00 in0.0 mm
08:32 AM 72.1°F22.3°C 64.6°F18.1°C 77% Calm Calm 4.3 mph6.9 kmh 29.84 in1010.5 mb 0.00 in0.0 mm 0.00 in0.0 mm 0.00 in0.0 mm
08:37 AM 72.5°F22.5°C 64.6°F18.1°C 76% 1.1 mph NNW1.8 kmh NNW 5.4 mph8.7 kmh 29.85 in1010.8 mb 0.00 in0.0 mm 0.00 in0.0 mm 0.00 in0.0 mm
08:42 AM 72.9°F22.7°C 64.4°F18.0°C 75% 0.4 mph N0.6 kmh N 4.3 mph6.9 kmh 29.84 in1010.5 mb 0.00 in0.0 mm 0.00 in0.0 mm 0.00 in0.0 mm
08:47 AM 73.6°F23.1°C 65.1°F18.4°C 75% 0.2 mph WSW0.3 kmh WSW 2.0 mph3.2 kmh 29.85 in1010.8 mb 0.00 in0.0 mm 0.00 in0.0 mm 0.00 in0.0 mm
08:52 AM 73.6°F23.1°C 64.4°F18.0°C 73% 0.4 mph WSW0.6 kmh WSW 5.4 mph8.7 kmh 29.84 in1010.5 mb 0.00 in0.0 mm 0.00 in0.0 mm 0.00 in0.0 mm
08:57 AM 74.5°F23.6°C 65.3°F18.5°C 73% 2.5 mph SE4.0 kmh SE 6.3 mph10.1 kmh 29.84 in1010.5 mb 0.00 in0.0 mm 0.00 in0.0 mm 0.00 in0.0 mm
09:02 AM 75.0°F23.9°C 64.9°F18.3°C 71% 3.8 mph S6.1 kmh S 8.5 mph13.7 kmh 29.84 in1010.5 mb 0.00 in0.0 mm 0.00 in0.0 mm 0.00 in0.0 mm
09:07 AM 75.6°F24.2°C 65.5°F18.6°C 71% Calm Calm 3.1 mph5.0 kmh 29.84 in1010.5 mb 0.00 in0.0 mm 0.00 in0.0 mm 0.00 in0.0 mm
09:12 AM 76.3°F24.6°C 65.3°F18.5°C 69% 2.0 mph NW3.2 kmh NW 5.4 mph8.7 kmh 29.84 in1010.5 mb 0.00 in0.0 mm 0.00 in0.0 mm 0.00 in0.0 mm
09:17 AM 75.9°F24.4°C 64.6°F18.1°C 68% 0.7 mph WNW1.1 kmh WNW 5.4 mph8.7 kmh 29.84 in1010.5 mb 0.00 in0.0 mm 0.00 in0.0 mm 0.00 in0.0 mm
09:22 AM 76.5°F24.7°C 65.1°F18.4°C 68% 1.3 mph W2.1 kmh W 3.1 mph5.0 kmh 29.84 in1010.5 mb 0.00 in0.0 mm 0.00 in0.0 mm 0.00 in0.0 mm
09:27 AM 77.2°F25.1°C 64.9°F18.3°C 66% 2.9 mph SW4.7 kmh SW 6.3 mph10.1 kmh 29.84 in1010.5 mb 0.00 in0.0 mm 0.00 in0.0 mm 0.00 in0.0 mm
09:32 AM 77.2°F25.1°C 64.9°F18.3°C 66% 4.7 mph SW7.6 kmh SW 8.5 mph13.7 kmh 29.84 in1010.5 mb 0.00 in0.0 mm 0.00 in0.0 mm 0.00 in0.0 mm
09:37 AM 77.5°F25.3°C 65.3°F18.5°C 66% 1.8 mph S2.9 kmh S 5.4 mph8.7 kmh 29.84 in1010.5 mb 0.00 in0.0 mm 0.00 in0.0 mm 0.00 in0.0 mm
09:42 AM 78.1°F25.6°C 64.9°F18.3°C 64% 2.5 mph S4.0 kmh S 6.3 mph10.1 kmh 29.84 in1010.5 mb 0.00 in0.0 mm 0.00 in0.0 mm 0.00 in0.0 mm
09:47 AM 78.3°F25.7°C 65.1°F18.4°C 64% 0.7 mph SSE1.1 kmh SSE 5.4 mph8.7 kmh 29.84 in1010.5 mb 0.00 in0.0 mm 0.00 in0.0 mm 0.00 in0.0 mm
09:52 AM 78.4°F25.8°C 64.4°F18.0°C 62% 2.9 mph SW4.7 kmh SW 8.5 mph13.7 kmh 29.83 in1010.2 mb 0.00 in0.0 mm 0.00 in0.0 mm 0.00 in0.0 mm
09:57 AM 79.0°F26.1°C 64.8°F18.2°C 62% 4.5 mph SW7.2 kmh SW 9.6 mph15.4 kmh 29.83 in1010.2 mb 0.00 in0.0 mm 0.00 in0.0 mm 0.00 in0.0 mm
10:02 AM 79.0°F26.1°C 64.8°F18.2°C 62% 4.5 mph SSW7.2 kmh SSW 8.5 mph13.7 kmh 29.83 in1010.2 mb 0.00 in0.0 mm 0.00 in0.0 mm 0.00 in0.0 mm
10:07 AM 79.2°F26.2°C 64.9°F18.3°C 62% 4.3 mph SW6.9 kmh SW 8.5 mph13.7 kmh 29.83 in1010.2 mb 0.00 in0.0 mm 0.00 in0.0 mm 0.00 in0.0 mm
10:12 AM 79.3°F26.3°C 64.8°F18.2°C 61% 5.1 mph W8.2 kmh W 8.5 mph13.7 kmh 29.83 in1010.2 mb 0.00 in0.0 mm 0.00 in0.0 mm 0.00 in0.0 mm
10:17 AM 79.2°F26.2°C 64.9°F18.3°C 62% 2.5 mph SW4.0 kmh SW 8.5 mph13.7 kmh 29.83 in1010.2 mb 0.00 in0.0 mm 0.00 in0.0 mm 0.00 in0.0 mm
10:22 AM 79.3°F26.3°C 64.8°F18.2°C 61% 4.9 mph S7.9 kmh S 9.6 mph15.4 kmh 29.83 in1010.2 mb 0.00 in0.0 mm 0.00 in0.0 mm 0.00 in0.0 mm
10:27 AM 79.3°F26.3°C 65.1°F18.4°C 62% 5.8 mph SSW9.3 kmh SSW 10.5 mph16.9 kmh 29.83 in1010.2 mb 0.00 in0.0 mm 0.00 in0.0 mm 0.00 in0.0 mm
10:32 AM 79.2°F26.2°C 64.9°F18.3°C 62% 5.6 mph SSW9.0 kmh SSW 10.5 mph16.9 kmh 29.82 in1009.8 mb 0.00 in0.0 mm 0.00 in0.0 mm 0.00 in0.0 mm
10:37 AM 79.2°F26.2°C 65.5°F18.6°C 63% 5.4 mph SSW8.7 kmh SSW 11.6 mph18.7 kmh 29.83 in1010.2 mb 0.00 in0.0 mm 0.00 in0.0 mm 0.00 in0.0 mm
10:42 AM 79.2°F26.2°C 64.9°F18.3°C 62% 5.1 mph SSW8.2 kmh SSW 12.8 mph20.6 kmh 29.82 in1009.8 mb 0.00 in0.0 mm 0.00 in0.0 mm 0.00 in0.0 mm
10:47 AM 79.5°F26.4°C 65.3°F18.5°C 62% 3.4 mph WSW5.5 kmh WSW 10.5 mph16.9 kmh 29.82 in1009.8 mb 0.00 in0.0 mm 0.00 in0.0 mm 0.00 in0.0 mm
10:52 AM 79.5°F26.4°C 65.3°F18.5°C 62% 4.3 mph WSW6.9 kmh WSW 11.6 mph18.7 kmh 29.82 in1009.8 mb 0.00 in0.0 mm 0.00 in0.0 mm 0.00 in0.0 mm
10:57 AM 79.9°F26.6°C 65.3°F18.5°C 61% 5.6 mph SW9.0 kmh SW 13.9 mph22.4 kmh 29.82 in1009.8 mb 0.00 in0.0 mm 0.00 in0.0 mm 0.00 in0.0 mm
11:02 AM 79.5°F26.4°C 64.9°F18.3°C 61% 5.4 mph SW8.7 kmh SW 13.9 mph22.4 kmh 29.82 in1009.8 mb 0.00 in0.0 mm 0.00 in0.0 mm 0.00 in0.0 mm
11:07 AM 79.9°F26.6°C 65.3°F18.5°C 61% 6.5 mph SSW10.5 kmh SSW 12.8 mph20.6 kmh 29.81 in1009.5 mb 0.00 in0.0 mm 0.00 in0.0 mm 0.00 in0.0 mm
11:12 AM 80.1°F26.7°C 65.5°F18.6°C 61% 6.3 mph SW10.1 kmh SW 11.6 mph18.7 kmh 29.81 in1009.5 mb 0.00 in0.0 mm 0.00 in0.0 mm 0.00 in0.0 mm
11:17 AM 80.4°F26.9°C 65.3°F18.5°C 60% 7.2 mph SW11.6 kmh SW 11.6 mph18.7 kmh 29.80 in1009.1 mb 0.00 in0.0 mm 0.00 in0.0 mm 0.00 in0.0 mm
11:22 AM 80.2°F26.8°C 65.1°F18.4°C 60% 8.3 mph SW13.4 kmh SW 11.6 mph18.7 kmh 29.81 in1009.5 mb 0.00 in0.0 mm 0.00 in0.0 mm 0.00 in0.0 mm
11:27 AM 80.8°F27.1°C 65.1°F18.4°C 59% 7.6 mph SW12.2 kmh SW 11.6 mph18.7 kmh 29.80 in1009.1 mb 0.00 in0.0 mm 0.00 in0.0 mm 0.00 in0.0 mm
11:32 AM 80.2°F26.8°C 65.1°F18.4°C 60% 6.3 mph SW10.1 kmh SW 11.6 mph18.7 kmh 29.80 in1009.1 mb 0.00 in0.0 mm 0.00 in0.0 mm 0.00 in0.0 mm
11:37 AM 80.2°F26.8°C 64.6°F18.1°C 59% 8.3 mph SW13.4 kmh SW 12.8 mph20.6 kmh 29.80 in1009.1 mb 0.00 in0.0 mm 0.00 in0.0 mm 0.00 in0.0 mm
11:42 AM 80.4°F26.9°C 64.2°F17.9°C 58% 8.5 mph S13.7 kmh S 13.9 mph22.4 kmh 29.80 in1009.1 mb 0.00 in0.0 mm 0.00 in0.0 mm 0.00 in0.0 mm
11:47 AM 80.4°F26.9°C 63.3°F17.4°C 56% 5.6 mph SW9.0 kmh SW 11.6 mph18.7 kmh 29.80 in1009.1 mb 0.00 in0.0 mm 0.00 in0.0 mm 0.00 in0.0 mm
11:52 AM 81.0°F27.2°C 63.9°F17.7°C 56% 4.9 mph S7.9 kmh S 9.6 mph15.4 kmh 29.79 in1008.8 mb 0.00 in0.0 mm 0.00 in0.0 mm 0.00 in0.0 mm
11:57 AM 81.3°F27.4°C 63.7°F17.6°C 55% 3.8 mph WSW6.1 kmh WSW 10.5 mph16.9 kmh 29.79 in1008.8 mb 0.00 in0.0 mm 0.00 in0.0 mm 0.00 in0.0 mm
12:02 PM 81.3°F27.4°C 64.6°F18.1°C 57% 6.3 mph SW10.1 kmh SW 11.6 mph18.7 kmh 29.79 in1008.8 mb 0.00 in0.0 mm 0.00 in0.0 mm 0.00 in0.0 mm
12:07 PM 81.7°F27.6°C 64.4°F18.0°C 56% 4.0 mph WSW6.4 kmh WSW 11.6 mph18.7 kmh 29.79 in1008.8 mb 0.00 in0.0 mm 0.00 in0.0 mm 0.00 in0.0 mm
12:12 PM 81.3°F27.4°C 64.0°F17.8°C 56% 4.9 mph SSW7.9 kmh SSW 10.5 mph16.9 kmh 29.79 in1008.8 mb 0.00 in0.0 mm 0.00 in0.0 mm 0.00 in0.0 mm
12:17 PM 81.3°F27.4°C 64.0°F17.8°C 56% 7.2 mph SSW11.6 kmh SSW 11.6 mph18.7 kmh 29.79 in1008.8 mb 0.00 in0.0 mm 0.00 in0.0 mm 0.00 in0.0 mm
12:22 PM 81.3°F27.4°C 64.0°F17.8°C 56% 6.9 mph SSW11.1 kmh SSW 11.6 mph18.7 kmh 29.78 in1008.5 mb 0.00 in0.0 mm 0.00 in0.0 mm 0.00 in0.0 mm
12:27 PM 81.3°F27.4°C 64.0°F17.8°C 56% 6.7 mph SSW10.8 kmh SSW 11.6 mph18.7 kmh 29.79 in1008.8 mb 0.00 in0.0 mm 0.00 in0.0 mm 0.00 in0.0 mm
12:32 PM 80.8°F27.1°C 64.6°F18.1°C 58% 7.6 mph SW12.2 kmh SW 13.9 mph22.4 kmh 29.78 in1008.5 mb 0.00 in0.0 mm 0.00 in0.0 mm 0.00 in0.0 mm
12:37 PM 81.0°F27.2°C 64.2°F17.9°C 57% 6.7 mph SW10.8 kmh SW 13.9 mph22.4 kmh 29.78 in1008.5 mb 0.00 in0.0 mm 0.00 in0.0 mm 0.00 in0.0 mm
12:42 PM 81.3°F27.4°C 64.0°F17.8°C 56% 8.9 mph SW14.3 kmh SW 14.8 mph23.8 kmh 29.79 in1008.8 mb 0.00 in0.0 mm 0.00 in0.0 mm 0.00 in0.0 mm
12:47 PM 80.4°F26.9°C 63.9°F17.7°C 57% 7.2 mph SW11.6 kmh SW 12.8 mph20.6 kmh 29.78 in1008.5 mb 0.00 in0.0 mm 0.00 in0.0 mm 0.00 in0.0 mm
12:52 PM 80.6°F27.0°C 63.5°F17.5°C 56% 4.9 mph SW7.9 kmh SW 11.6 mph18.7 kmh 29.78 in1008.5 mb 0.00 in0.0 mm 0.00 in0.0 mm 0.00 in0.0 mm
12:57 PM 80.4°F26.9°C 63.3°F17.4°C 56% 4.5 mph W7.2 kmh W 10.5 mph16.9 kmh 29.78 in1008.5 mb 0.00 in0.0 mm 0.00 in0.0 mm 0.00 in0.0 mm
01:02 PM 81.1°F27.3°C 64.0°F17.8°C 56% 5.4 mph SW8.7 kmh SW 11.6 mph18.7 kmh 29.78 in1008.5 mb 0.00 in0.0 mm 0.00 in0.0 mm 0.00 in0.0 mm
01:07 PM 80.6°F27.0°C 63.0°F17.2°C 55% 6.0 mph W9.7 kmh W 12.8 mph20.6 kmh 29.78 in1008.5 mb 0.00 in0.0 mm 0.00 in0.0 mm 0.00 in0.0 mm
01:12 PM 80.8°F27.1°C 64.0°F17.8°C 57% 4.3 mph SW6.9 kmh SW 10.5 mph16.9 kmh 29.77 in1008.1 mb 0.00 in0.0 mm 0.00 in0.0 mm 0.00 in0.0 mm
01:17 PM 81.7°F27.6°C 63.9°F17.7°C 55% 3.8 mph NW6.1 kmh NW 8.5 mph13.7 kmh 29.78 in1008.5 mb 0.00 in0.0 mm 0.00 in0.0 mm 0.00 in0.0 mm
01:22 PM 81.9°F27.7°C 63.5°F17.5°C 54% 2.9 mph WSW4.7 kmh WSW 7.4 mph11.9 kmh 29.78 in1008.5 mb 0.00 in0.0 mm 0.00 in0.0 mm 0.00 in0.0 mm
01:27 PM 81.0°F27.2°C 63.9°F17.7°C 56% 4.0 mph WSW6.4 kmh WSW 9.6 mph15.4 kmh 29.77 in1008.1 mb 0.00 in0.0 mm 0.00 in0.0 mm 0.00 in0.0 mm
01:32 PM 81.5°F27.5°C 64.2°F17.9°C 56% 2.5 mph SW4.0 kmh SW 9.6 mph15.4 kmh 29.77 in1008.1 mb 0.00 in0.0 mm 0.00 in0.0 mm 0.00 in0.0 mm
01:37 PM 81.3°F27.4°C 64.0°F17.8°C 56% 3.8 mph WNW6.1 kmh WNW 11.6 mph18.7 kmh 29.76 in1007.8 mb 0.00 in0.0 mm 0.00 in0.0 mm 0.00 in0.0 mm
01:42 PM 80.8°F27.1°C 64.0°F17.8°C 57% 2.5 mph W4.0 kmh W 9.6 mph15.4 kmh 29.76 in1007.8 mb 0.00 in0.0 mm 0.00 in0.0 mm 0.00 in0.0 mm
01:47 PM 80.8°F27.1°C 64.6°F18.1°C 58% 5.4 mph SW8.7 kmh SW 10.5 mph16.9 kmh 29.76 in1007.8 mb 0.00 in0.0 mm 0.00 in0.0 mm 0.00 in0.0 mm
01:52 PM 81.7°F27.6°C 64.4°F18.0°C 56% 4.3 mph SW6.9 kmh SW 7.4 mph11.9 kmh 29.75 in1007.5 mb 0.00 in0.0 mm 0.00 in0.0 mm 0.00 in0.0 mm
01:57 PM 82.0°F27.8°C 64.8°F18.2°C 56% 3.8 mph SW6.1 kmh SW 10.5 mph16.9 kmh 29.75 in1007.5 mb 0.00 in0.0 mm 0.00 in0.0 mm 0.00 in0.0 mm
02:02 PM 81.1°F27.3°C 65.5°F18.6°C 59% 4.7 mph S7.6 kmh S 13.9 mph22.4 kmh 29.75 in1007.5 mb 0.00 in0.0 mm 0.00 in0.0 mm 0.00 in0.0 mm
02:07 PM 81.3°F27.4°C 65.1°F18.4°C 58% 6.5 mph S10.5 kmh S 12.8 mph20.6 kmh 29.75 in1007.5 mb 0.00 in0.0 mm 0.00 in0.0 mm 0.00 in0.0 mm
02:12 PM 82.0°F27.8°C 65.8°F18.8°C 58% 7.4 mph SW11.9 kmh SW 11.6 mph18.7 kmh 29.75 in1007.5 mb 0.00 in0.0 mm 0.00 in0.0 mm 0.00 in0.0 mm
02:17 PM 81.7°F27.6°C 65.5°F18.6°C 58% 6.9 mph SW11.1 kmh SW 11.6 mph18.7 kmh 29.75 in1007.5 mb 0.00 in0.0 mm 0.00 in0.0 mm 0.00 in0.0 mm
02:22 PM 81.0°F27.2°C 65.8°F18.8°C 60% 5.6 mph SW9.0 kmh SW 10.5 mph16.9 kmh 29.74 in1007.1 mb 0.00 in0.0 mm 0.00 in0.0 mm 0.00 in0.0 mm
02:27 PM 80.8°F27.1°C 65.7°F18.7°C 60% 6.5 mph SSW10.5 kmh SSW 11.6 mph18.7 kmh 29.74 in1007.1 mb 0.00 in0.0 mm 0.00 in0.0 mm 0.00 in0.0 mm
02:32 PM 80.8°F27.1°C 66.0°F18.9°C 61% 5.4 mph SW8.7 kmh SW 12.8 mph20.6 kmh 29.74 in1007.1 mb 0.00 in0.0 mm 0.00 in0.0 mm 0.00 in0.0 mm
02:37 PM 80.8°F27.1°C 65.7°F18.7°C 60% 5.8 mph WSW9.3 kmh WSW 12.8 mph20.6 kmh 29.74 in1007.1 mb 0.00 in0.0 mm 0.00 in0.0 mm 0.00 in0.0 mm
02:42 PM 80.6°F27.0°C 65.5°F18.6°C 60% 6.3 mph SW10.1 kmh SW 12.8 mph20.6 kmh 29.74 in1007.1 mb 0.00 in0.0 mm 0.00 in0.0 mm 0.00 in0.0 mm
02:47 PM 80.4°F26.9°C 65.7°F18.7°C 61% 5.6 mph SW9.0 kmh SW 12.8 mph20.6 kmh 29.74 in1007.1 mb 0.00 in0.0 mm 0.00 in0.0 mm 0.00 in0.0 mm
02:52 PM 79.9°F26.6°C 65.3°F18.5°C 61% 7.6 mph SSW12.2 kmh SSW 10.5 mph16.9 kmh 29.74 in1007.1 mb 0.00 in0.0 mm 0.00 in0.0 mm 0.00 in0.0 mm
02:57 PM 79.3°F26.3°C 65.1°F18.4°C 62% 7.6 mph S12.2 kmh S 10.5 mph16.9 kmh 29.74 in1007.1 mb 0.00 in0.0 mm 0.00 in0.0 mm 0.00 in0.0 mm
03:02 PM 79.3°F26.3°C 65.7°F18.7°C 63% 7.4 mph SW11.9 kmh SW 12.8 mph20.6 kmh 29.73 in1006.8 mb 0.00 in0.0 mm 0.00 in0.0 mm 0.00 in0.0 mm
03:07 PM 79.5°F26.4°C 65.3°F18.5°C 62% 7.6 mph WNW12.2 kmh WNW 11.6 mph18.7 kmh 29.73 in1006.8 mb 0.00 in0.0 mm 0.00 in0.0 mm 0.00 in0.0 mm
03:12 PM 79.3°F26.3°C 65.7°F18.7°C 63% 7.4 mph SW11.9 kmh SW 10.5 mph16.9 kmh 29.73 in1006.8 mb 0.00 in0.0 mm 0.00 in0.0 mm 0.00 in0.0 mm
03:17 PM 79.9°F26.6°C 65.7°F18.7°C 62% 7.8 mph WSW12.6 kmh WSW 11.6 mph18.7 kmh 29.73 in1006.8 mb 0.00 in0.0 mm 0.00 in0.0 mm 0.00 in0.0 mm
03:22 PM 79.2°F26.2°C 65.5°F18.6°C 63% 6.9 mph WSW11.1 kmh WSW 13.9 mph22.4 kmh 29.73 in1006.8 mb 0.00 in0.0 mm 0.00 in0.0 mm 0.00 in0.0 mm
03:27 PM 79.2°F26.2°C 65.8°F18.8°C 64% 7.2 mph SSW11.6 kmh SSW 12.8 mph20.6 kmh 29.73 in1006.8 mb 0.00 in0.0 mm 0.00 in0.0 mm 0.00 in0.0 mm
03:32 PM 79.2°F26.2°C 65.8°F18.8°C 64% 6.3 mph SSW10.1 kmh SSW 11.6 mph18.7 kmh 29.72 in1006.4 mb 0.00 in0.0 mm 0.00 in0.0 mm 0.00 in0.0 mm
03:37 PM 79.3°F26.3°C 65.7°F18.7°C 63% 6.7 mph W10.8 kmh W 11.6 mph18.7 kmh 29.72 in1006.4 mb 0.00 in0.0 mm 0.00 in0.0 mm 0.00 in0.0 mm
03:42 PM 79.3°F26.3°C 66.0°F18.9°C 64% 4.0 mph WSW6.4 kmh WSW 8.5 mph13.7 kmh 29.72 in1006.4 mb 0.00 in0.0 mm 0.00 in0.0 mm 0.00 in0.0 mm
03:47 PM 79.2°F26.2°C 65.8°F18.8°C 64% 6.3 mph SW10.1 kmh SW 10.5 mph16.9 kmh 29.72 in1006.4 mb 0.00 in0.0 mm 0.00 in0.0 mm 0.00 in0.0 mm
03:52 PM 79.2°F26.2°C 65.8°F18.8°C 64% 4.5 mph WSW7.2 kmh WSW 10.5 mph16.9 kmh 29.72 in1006.4 mb 0.00 in0.0 mm 0.00 in0.0 mm 0.00 in0.0 mm
03:57 PM 79.5°F26.4°C 65.8°F18.8°C 63% 5.1 mph S8.2 kmh S 10.5 mph16.9 kmh 29.72 in1006.4 mb 0.00 in0.0 mm 0.00 in0.0 mm 0.00 in0.0 mm
04:02 PM 78.8°F26.0°C 65.1°F18.4°C 63% 2.9 mph SW4.7 kmh SW 10.5 mph16.9 kmh 29.72 in1006.4 mb 0.00 in0.0 mm 0.00 in0.0 mm 0.00 in0.0 mm
04:07 PM 78.8°F26.0°C 65.7°F18.7°C 64% 3.1 mph SW5.0 kmh SW 10.5 mph16.9 kmh 29.72 in1006.4 mb 0.00 in0.0 mm 0.00 in0.0 mm 0.00 in0.0 mm
04:12 PM 79.0°F26.1°C 65.3°F18.5°C 63% 5.4 mph SW8.7 kmh SW 8.5 mph13.7 kmh 29.72 in1006.4 mb 0.00 in0.0 mm 0.00 in0.0 mm 0.00 in0.0 mm
04:17 PM 78.6°F25.9°C 65.5°F18.6°C 64% 4.0 mph SW6.4 kmh SW 9.6 mph15.4 kmh 29.72 in1006.4 mb 0.00 in0.0 mm 0.00 in0.0 mm 0.00 in0.0 mm
04:22 PM 78.4°F25.8°C 65.3°F18.5°C 64% 3.4 mph SSW5.5 kmh SSW 9.6 mph15.4 kmh 29.72 in1006.4 mb 0.00 in0.0 mm 0.00 in0.0 mm 0.00 in0.0 mm
04:27 PM 78.6°F25.9°C 65.5°F18.6°C 64% 4.9 mph WNW7.9 kmh WNW 8.5 mph13.7 kmh 29.72 in1006.4 mb 0.00 in0.0 mm 0.00 in0.0 mm 0.00 in0.0 mm
04:32 PM 77.9°F25.5°C 65.1°F18.4°C 65% 4.7 mph SW7.6 kmh SW 8.5 mph13.7 kmh 29.72 in1006.4 mb 0.00 in0.0 mm 0.00 in0.0 mm 0.00 in0.0 mm
04:37 PM 77.7°F25.4°C 64.9°F18.3°C 65% 5.8 mph SSE9.3 kmh SSE 10.5 mph16.9 kmh 29.72 in1006.4 mb 0.00 in0.0 mm 0.00 in0.0 mm 0.00 in0.0 mm
04:42 PM 77.9°F25.5°C 65.1°F18.4°C 65% 4.5 mph SSW7.2 kmh SSW 8.5 mph13.7 kmh 29.72 in1006.4 mb 0.00 in0.0 mm 0.00 in0.0 mm 0.00 in0.0 mm
04:47 PM 77.7°F25.4°C 64.9°F18.3°C 65% 1.8 mph W2.9 kmh W 6.3 mph10.1 kmh 29.72 in1006.4 mb 0.00 in0.0 mm 0.00 in0.0 mm 0.00 in0.0 mm
04:52 PM 77.5°F25.3°C 65.3°F18.5°C 66% 3.1 mph NW5.0 kmh NW 8.5 mph13.7 kmh 29.72 in1006.4 mb 0.00 in0.0 mm 0.00 in0.0 mm 0.00 in0.0 mm
04:57 PM 77.4°F25.2°C 65.1°F18.4°C 66% 4.3 mph S6.9 kmh S 9.6 mph15.4 kmh 29.72 in1006.4 mb 0.00 in0.0 mm 0.00 in0.0 mm 0.00 in0.0 mm
05:02 PM 77.4°F25.2°C 65.5°F18.6°C 67% 3.1 mph SW5.0 kmh SW 7.4 mph11.9 kmh 29.72 in1006.4 mb 0.00 in0.0 mm 0.00 in0.0 mm 0.00 in0.0 mm
05:07 PM 77.4°F25.2°C 65.5°F18.6°C 67% 4.5 mph SW7.2 kmh SW 6.3 mph10.1 kmh 29.72 in1006.4 mb 0.00 in0.0 mm 0.00 in0.0 mm 0.00 in0.0 mm
05:12 PM 76.8°F24.9°C 64.9°F18.3°C 67% 4.3 mph SSW6.9 kmh SSW 6.3 mph10.1 kmh 29.72 in1006.4 mb 0.00 in0.0 mm 0.00 in0.0 mm 0.00 in0.0 mm
05:17 PM 76.1°F24.5°C 65.1°F18.4°C 69% 2.9 mph S4.7 kmh S 8.5 mph13.7 kmh 29.72 in1006.4 mb 0.00 in0.0 mm 0.00 in0.0 mm 0.00 in0.0 mm
05:22 PM 75.6°F24.2°C 65.1°F18.4°C 70% 1.8 mph WSW2.9 kmh WSW 6.3 mph10.1 kmh 29.72 in1006.4 mb 0.00 in0.0 mm 0.00 in0.0 mm 0.00 in0.0 mm
05:27 PM 75.4°F24.1°C 65.3°F18.5°C 71% 1.1 mph SW1.8 kmh SW 6.3 mph10.1 kmh 29.71 in1006.1 mb 0.00 in0.0 mm 0.00 in0.0 mm 0.00 in0.0 mm
05:32 PM 75.0°F23.9°C 64.9°F18.3°C 71% 1.3 mph SW2.1 kmh SW 5.4 mph8.7 kmh 29.71 in1006.1 mb 0.00 in0.0 mm 0.00 in0.0 mm 0.00 in0.0 mm
05:37 PM 74.7°F23.7°C 65.1°F18.4°C 72% 3.1 mph SW5.0 kmh SW 6.3 mph10.1 kmh 29.71 in1006.1 mb 0.00 in0.0 mm 0.00 in0.0 mm 0.00 in0.0 mm
05:42 PM 74.7°F23.7°C 65.5°F18.6°C 73% 5.1 mph WSW8.2 kmh WSW 8.5 mph13.7 kmh 29.71 in1006.1 mb 0.00 in0.0 mm 0.00 in0.0 mm 0.00 in0.0 mm
05:47 PM 73.9°F23.3°C 65.1°F18.4°C 74% 4.3 mph SW6.9 kmh SW 9.6 mph15.4 kmh 29.71 in1006.1 mb 0.00 in0.0 mm 0.00 in0.0 mm 0.00 in0.0 mm
05:52 PM 73.6°F23.1°C 65.5°F18.6°C 76% 4.5 mph SSW7.2 kmh SSW 8.5 mph13.7 kmh 29.71 in1006.1 mb 0.00 in0.0 mm 0.00 in0.0 mm 0.00 in0.0 mm
05:57 PM 73.4°F23.0°C 65.3°F18.5°C 76% 2.0 mph WSW3.2 kmh WSW 7.4 mph11.9 kmh 29.71 in1006.1 mb 0.00 in0.0 mm 0.00 in0.0 mm 0.00 in0.0 mm
06:02 PM 73.0°F22.8°C 65.5°F18.6°C 77% 4.3 mph SSW6.9 kmh SSW 7.4 mph11.9 kmh 29.71 in1006.1 mb 0.00 in0.0 mm 0.00 in0.0 mm 0.00 in0.0 mm
06:07 PM 72.5°F22.5°C 65.3°F18.5°C 78% 4.5 mph SW7.2 kmh SW 7.4 mph11.9 kmh 29.71 in1006.1 mb 0.00 in0.0 mm 0.00 in0.0 mm 0.00 in0.0 mm
06:12 PM 72.1°F22.3°C 65.3°F18.5°C 79% 2.9 mph S4.7 kmh S 8.5 mph13.7 kmh 29.71 in1006.1 mb 0.00 in0.0 mm 0.00 in0.0 mm 0.00 in0.0 mm
06:17 PM 72.0°F22.2°C 65.1°F18.4°C 79% 4.5 mph SW7.2 kmh SW 7.4 mph11.9 kmh 29.71 in1006.1 mb 0.00 in0.0 mm 0.00 in0.0 mm 0.00 in0.0 mm
06:22 PM 71.6°F22.0°C 65.1°F18.4°C 80% 3.4 mph SW5.5 kmh SW 8.5 mph13.7 kmh 29.72 in1006.4 mb 0.00 in0.0 mm 0.00 in0.0 mm 0.00 in0.0 mm
06:27 PM 71.2°F21.8°C 65.1°F18.4°C 81% 4.3 mph SSW6.9 kmh SSW 7.4 mph11.9 kmh 29.72 in1006.4 mb 0.00 in0.0 mm 0.00 in0.0 mm 0.00 in0.0 mm
06:32 PM 71.1°F21.7°C 64.9°F18.3°C 81% 4.9 mph SW7.9 kmh SW 8.5 mph13.7 kmh 29.72 in1006.4 mb 0.00 in0.0 mm 0.00 in0.0 mm 0.00 in0.0 mm
06:37 PM 70.7°F21.5°C 64.9°F18.3°C 82% 4.5 mph SSW7.2 kmh SSW 6.3 mph10.1 kmh 29.72 in1006.4 mb 0.00 in0.0 mm 0.00 in0.0 mm 0.00 in0.0 mm
06:42 PM 70.5°F21.4°C 64.8°F18.2°C 82% 3.1 mph SW5.0 kmh SW 6.3 mph10.1 kmh 29.72 in1006.4 mb 0.00 in0.0 mm 0.00 in0.0 mm 0.00 in0.0 mm
06:47 PM 70.3°F21.3°C 64.6°F18.1°C 82% 1.6 mph SW2.6 kmh SW 5.4 mph8.7 kmh 29.72 in1006.4 mb 0.00 in0.0 mm 0.00 in0.0 mm 0.00 in0.0 mm
06:52 PM 70.2°F21.2°C 64.4°F18.0°C 82% 1.3 mph SW2.1 kmh SW 5.4 mph8.7 kmh 29.72 in1006.4 mb 0.00 in0.0 mm 0.00 in0.0 mm 0.00 in0.0 mm
06:57 PM 70.0°F21.1°C 64.6°F18.1°C 83% 1.1 mph WSW1.8 kmh WSW 4.3 mph6.9 kmh 29.72 in1006.4 mb 0.00 in0.0 mm 0.00 in0.0 mm 0.00 in0.0 mm
07:02 PM 69.8°F21.0°C 64.4°F18.0°C 83% 3.1 mph SW5.0 kmh SW 6.3 mph10.1 kmh 29.72 in1006.4 mb 0.00 in0.0 mm 0.00 in0.0 mm 0.00 in0.0 mm
07:07 PM 69.6°F20.9°C 64.2°F17.9°C 83% 1.6 mph SW2.6 kmh SW 6.3 mph10.1 kmh 29.73 in1006.8 mb 0.00 in0.0 mm 0.00 in0.0 mm 0.00 in0.0 mm
07:12 PM 69.6°F20.9°C 64.2°F17.9°C 83% 2.9 mph SW4.7 kmh SW 5.4 mph8.7 kmh 29.72 in1006.4 mb 0.00 in0.0 mm 0.00 in0.0 mm 0.00 in0.0 mm
07:17 PM 69.4°F20.8°C 64.4°F18.0°C 84% 0.9 mph SSW1.4 kmh SSW 4.3 mph6.9 kmh 29.72 in1006.4 mb 0.00 in0.0 mm 0.00 in0.0 mm 0.00 in0.0 mm
07:22 PM 69.4°F20.8°C 64.4°F18.0°C 84% Calm Calm 3.1 mph5.0 kmh 29.72 in1006.4 mb 0.00 in0.0 mm 0.00 in0.0 mm 0.00 in0.0 mm
07:27 PM 69.3°F20.7°C 64.2°F17.9°C 84% 3.4 mph SSW5.5 kmh SSW 5.4 mph8.7 kmh 29.73 in1006.8 mb 0.00 in0.0 mm 0.00 in0.0 mm 0.00 in0.0 mm
07:32 PM 69.3°F20.7°C 64.2°F17.9°C 84% 1.6 mph SSW2.6 kmh SSW 5.4 mph8.7 kmh 29.73 in1006.8 mb 0.00 in0.0 mm 0.00 in0.0 mm 0.00 in0.0 mm
07:37 PM 69.3°F20.7°C 64.2°F17.9°C 84% 2.5 mph SW4.0 kmh SW 4.3 mph6.9 kmh 29.73 in1006.8 mb 0.00 in0.0 mm 0.00 in0.0 mm 0.00 in0.0 mm
07:42 PM 69.3°F20.7°C 64.2°F17.9°C 84% 0.2 mph SW0.3 kmh SW 3.1 mph5.0 kmh 29.73 in1006.8 mb 0.00 in0.0 mm 0.00 in0.0 mm 0.00 in0.0 mm
07:47 PM 69.3°F20.7°C 64.2°F17.9°C 84% 0.4 mph WSW0.6 kmh WSW 2.0 mph3.2 kmh 29.73 in1006.8 mb 0.00 in0.0 mm 0.00 in0.0 mm 0.00 in0.0 mm
07:52 PM 69.3°F20.7°C 64.2°F17.9°C 84% 1.3 mph SW2.1 kmh SW 3.1 mph5.0 kmh 29.74 in1007.1 mb 0.00 in0.0 mm 0.00 in0.0 mm 0.00 in0.0 mm
07:57 PM 69.3°F20.7°C 64.2°F17.9°C 84% 2.2 mph SW3.5 kmh SW 6.3 mph10.1 kmh 29.73 in1006.8 mb 0.00 in0.0 mm 0.00 in0.0 mm 0.00 in0.0 mm
08:02 PM 69.3°F20.7°C 64.2°F17.9°C 84% 0.4 mph SSW0.6 kmh SSW 6.3 mph10.1 kmh 29.74 in1007.1 mb 0.00 in0.0 mm 0.00 in0.0 mm 0.00 in0.0 mm
08:07 PM 69.1°F20.6°C 64.0°F17.8°C 84% 0.7 mph SSE1.1 kmh SSE 3.1 mph5.0 kmh 29.73 in1006.8 mb 0.00 in0.0 mm 0.00 in0.0 mm 0.00 in0.0 mm
08:12 PM 69.1°F20.6°C 64.0°F17.8°C 84% Calm Calm 3.1 mph5.0 kmh 29.73 in1006.8 mb 0.00 in0.0 mm 0.00 in0.0 mm 0.00 in0.0 mm
08:17 PM 68.9°F20.5°C 63.9°F17.7°C 84% Calm Calm -- 29.73 in1006.8 mb 0.00 in0.0 mm 0.00 in0.0 mm 0.00 in0.0 mm
08:22 PM 68.7°F20.4°C 63.7°F17.6°C 84% Calm Calm 1.1 mph1.8 kmh 29.73 in1006.8 mb 0.00 in0.0 mm 0.00 in0.0 mm 0.00 in0.0 mm
08:27 PM 68.7°F20.4°C 64.0°F17.8°C 85% 1.8 mph SW2.9 kmh SW 4.3 mph6.9 kmh 29.73 in1006.8 mb 0.00 in0.0 mm 0.00 in0.0 mm 0.00 in0.0 mm
08:32 PM 68.7°F20.4°C 64.0°F17.8°C 85% 0.4 mph SW0.6 kmh SW 4.3 mph6.9 kmh 29.74 in1007.1 mb 0.00 in0.0 mm 0.00 in0.0 mm 0.00 in0.0 mm
08:37 PM 68.7°F20.4°C 64.0°F17.8°C 85% 1.3 mph SSW2.1 kmh SSW 5.4 mph8.7 kmh 29.74 in1007.1 mb 0.00 in0.0 mm 0.00 in0.0 mm 0.00 in0.0 mm
08:42 PM 68.7°F20.4°C 64.0°F17.8°C 85% 2.9 mph SW4.7 kmh SW 5.4 mph8.7 kmh 29.74 in1007.1 mb 0.00 in0.0 mm 0.00 in0.0 mm 0.00 in0.0 mm
08:47 PM 68.7°F20.4°C 64.0°F17.8°C 85% 1.8 mph SW2.9 kmh SW 4.3 mph6.9 kmh 29.74 in1007.1 mb 0.00 in0.0 mm 0.00 in0.0 mm 0.00 in0.0 mm
08:52 PM 68.7°F20.4°C 64.0°F17.8°C 85% 1.1 mph S1.8 kmh S 4.3 mph6.9 kmh 29.74 in1007.1 mb 0.00 in0.0 mm 0.00 in0.0 mm 0.00 in0.0 mm
08:57 PM 68.7°F20.4°C 64.0°F17.8°C 85% Calm Calm 3.1 mph5.0 kmh 29.74 in1007.1 mb 0.00 in0.0 mm 0.00 in0.0 mm 0.00 in0.0 mm
09:02 PM 68.7°F20.4°C 64.0°F17.8°C 85% 0.2 mph SW0.3 kmh SW 1.1 mph1.8 kmh 29.74 in1007.1 mb 0.00 in0.0 mm 0.00 in0.0 mm 0.00 in0.0 mm
09:07 PM 68.7°F20.4°C 64.0°F17.8°C 85% 1.6 mph SSE2.6 kmh SSE 3.1 mph5.0 kmh 29.74 in1007.1 mb 0.00 in0.0 mm 0.00 in0.0 mm 0.00 in0.0 mm
09:12 PM 68.7°F20.4°C 64.0°F17.8°C 85% 0.2 mph WSW0.3 kmh WSW 4.3 mph6.9 kmh 29.74 in1007.1 mb 0.00 in0.0 mm 0.00 in0.0 mm 0.00 in0.0 mm
09:17 PM 68.7°F20.4°C 64.0°F17.8°C 85% 1.8 mph SSE2.9 kmh SSE 4.3 mph6.9 kmh 29.74 in1007.1 mb 0.00 in0.0 mm 0.00 in0.0 mm 0.00 in0.0 mm
09:22 PM 68.7°F20.4°C 64.0°F17.8°C 85% Calm Calm 6.3 mph10.1 kmh 29.74 in1007.1 mb 0.00 in0.0 mm 0.00 in0.0 mm 0.00 in0.0 mm
09:27 PM 68.7°F20.4°C 64.0°F17.8°C 85% Calm Calm 1.1 mph1.8 kmh 29.74 in1007.1 mb 0.00 in0.0 mm 0.00 in0.0 mm 0.00 in0.0 mm
09:32 PM 68.7°F20.4°C 64.0°F17.8°C 85% 0.4 mph SSE0.6 kmh SSE 2.0 mph3.2 kmh 29.74 in1007.1 mb 0.00 in0.0 mm 0.00 in0.0 mm 0.00 in0.0 mm
09:37 PM 68.7°F20.4°C 64.0°F17.8°C 85% 0.9 mph SW1.4 kmh SW 3.1 mph5.0 kmh 29.74 in1007.1 mb 0.00 in0.0 mm 0.00 in0.0 mm 0.00 in0.0 mm
09:42 PM 68.7°F20.4°C 64.0°F17.8°C 85% 1.3 mph SW2.1 kmh SW 3.1 mph5.0 kmh 29.74 in1007.1 mb 0.00 in0.0 mm 0.00 in0.0 mm 0.00 in0.0 mm
09:47 PM 68.7°F20.4°C 64.0°F17.8°C 85% Calm Calm 3.1 mph5.0 kmh 29.75 in1007.5 mb 0.00 in0.0 mm 0.00 in0.0 mm 0.00 in0.0 mm
09:52 PM 68.7°F20.4°C 64.0°F17.8°C 85% 1.6 mph SSW2.6 kmh SSW 3.1 mph5.0 kmh 29.75 in1007.5 mb 0.00 in0.0 mm 0.00 in0.0 mm 0.00 in0.0 mm
09:57 PM 68.7°F20.4°C 64.0°F17.8°C 85% 1.1 mph SW1.8 kmh SW 3.1 mph5.0 kmh 29.74 in1007.1 mb 0.00 in0.0 mm 0.00 in0.0 mm 0.00 in0.0 mm
10:02 PM 68.7°F20.4°C 64.0°F17.8°C 85% Calm Calm 3.1 mph5.0 kmh 29.75 in1007.5 mb 0.00 in0.0 mm 0.00 in0.0 mm 0.00 in0.0 mm
10:07 PM 68.7°F20.4°C 64.0°F17.8°C 85% Calm Calm 2.0 mph3.2 kmh 29.75 in1007.5 mb 0.00 in0.0 mm 0.00 in0.0 mm 0.00 in0.0 mm
10:12 PM 68.7°F20.4°C 64.0°F17.8°C 85% Calm Calm -- 29.74 in1007.1 mb 0.00 in0.0 mm 0.00 in0.0 mm 0.00 in0.0 mm
10:17 PM 68.7°F20.4°C 64.0°F17.8°C 85% Calm Calm -- 29.75 in1007.5 mb 0.00 in0.0 mm 0.00 in0.0 mm 0.00 in0.0 mm
10:22 PM 68.5°F20.3°C 63.9°F17.7°C 85% Calm Calm -- 29.74 in1007.1 mb 0.00 in0.0 mm 0.00 in0.0 mm 0.00 in0.0 mm
10:27 PM 68.5°F20.3°C 63.9°F17.7°C 85% Calm Calm 1.1 mph1.8 kmh 29.74 in1007.1 mb 0.00 in0.0 mm 0.00 in0.0 mm 0.00 in0.0 mm
10:32 PM 68.7°F20.4°C 64.0°F17.8°C 85% Calm Calm 1.1 mph1.8 kmh 29.74 in1007.1 mb 0.00 in0.0 mm 0.00 in0.0 mm 0.00 in0.0 mm
10:37 PM 68.7°F20.4°C 64.0°F17.8°C 85% Calm Calm 4.3 mph6.9 kmh 29.74 in1007.1 mb 0.00 in0.0 mm 0.00 in0.0 mm 0.00 in0.0 mm
10:42 PM 68.7°F20.4°C 64.0°F17.8°C 85% 0.9 mph SE1.4 kmh SE 3.1 mph5.0 kmh 29.74 in1007.1 mb 0.00 in0.0 mm 0.00 in0.0 mm 0.00 in0.0 mm
10:47 PM 68.7°F20.4°C 64.0°F17.8°C 85% Calm Calm 2.0 mph3.2 kmh 29.74 in1007.1 mb 0.00 in0.0 mm 0.00 in0.0 mm 0.00 in0.0 mm
10:52 PM 68.7°F20.4°C 64.0°F17.8°C 85% 1.3 mph SSE2.1 kmh SSE 3.1 mph5.0 kmh 29.74 in1007.1 mb 0.00 in0.0 mm 0.00 in0.0 mm 0.00 in0.0 mm
10:57 PM 68.7°F20.4°C 63.7°F17.6°C 84% 0.7 mph SW1.1 kmh SW 3.1 mph5.0 kmh 29.73 in1006.8 mb 0.00 in0.0 mm 0.00 in0.0 mm 0.00 in0.0 mm
11:02 PM 68.5°F20.3°C 63.9°F17.7°C 85% 1.8 mph S2.9 kmh S 5.4 mph8.7 kmh 29.74 in1007.1 mb 0.00 in0.0 mm 0.00 in0.0 mm 0.00 in0.0 mm
11:07 PM 68.5°F20.3°C 63.9°F17.7°C 85% Calm Calm 3.1 mph5.0 kmh 29.74 in1007.1 mb 0.00 in0.0 mm 0.00 in0.0 mm 0.00 in0.0 mm
11:12 PM 68.5°F20.3°C 63.9°F17.7°C 85% Calm Calm -- 29.74 in1007.1 mb 0.00 in0.0 mm 0.00 in0.0 mm 0.00 in0.0 mm
11:17 PM 68.5°F20.3°C 63.9°F17.7°C 85% Calm Calm -- 29.74 in1007.1 mb 0.00 in0.0 mm 0.00 in0.0 mm 0.00 in0.0 mm
11:22 PM 68.5°F20.3°C 63.9°F17.7°C 85% Calm Calm -- 29.74 in1007.1 mb 0.00 in0.0 mm 0.00 in0.0 mm 0.00 in0.0 mm
11:27 PM 68.5°F20.3°C 63.9°F17.7°C 85% Calm Calm 2.0 mph3.2 kmh 29.74 in1007.1 mb 0.00 in0.0 mm 0.00 in0.0 mm 0.00 in0.0 mm
11:32 PM 68.5°F20.3°C 63.9°F17.7°C 85% Calm Calm -- 29.74 in1007.1 mb 0.00 in0.0 mm 0.00 in0.0 mm 0.00 in0.0 mm
11:37 PM 68.4°F20.2°C 63.7°F17.6°C 85% Calm Calm -- 29.74 in1007.1 mb 0.00 in0.0 mm 0.00 in0.0 mm 0.00 in0.0 mm
11:42 PM 68.4°F20.2°C 63.7°F17.6°C 85% Calm Calm -- 29.73 in1006.8 mb 0.00 in0.0 mm 0.00 in0.0 mm 0.00 in0.0 mm
11:47 PM 68.4°F20.2°C 63.7°F17.6°C 85% Calm Calm -- 29.73 in1006.8 mb 0.00 in0.0 mm 0.00 in0.0 mm 0.00 in0.0 mm
11:52 PM 68.4°F20.2°C 63.7°F17.6°C 85% 0.7 mph SW1.1 kmh SW 2.0 mph3.2 kmh 29.73 in1006.8 mb 0.00 in0.0 mm 0.00 in0.0 mm 0.00 in0.0 mm
11:57 PM 68.4°F20.2°C 63.7°F17.6°C 85% 0.4 mph SW0.6 kmh SW 3.1 mph5.0 kmh 29.74 in1007.1 mb 0.00 in0.0 mm 0.00 in0.0 mm 0.00 in0.0 mm